Time;durP1;ratioP1;P1;durP2;ratioP2;P2;SDS_P1;SDS_P2;PMS_P1;PMS_P2;Temp;Humidity;BMP_temperature;BMP_pressure;BME280_temperature;BME280_humidity;BME280_pressure;Samples;Min_cycle;Max_cycle;Signal;HPM_P1;HPM_P2
2023/07/24 00:00:41;;;;;;;1999.90;999.90;;;16.20;99.90;;;;;;5037319;28;20022;-76
2023/07/24 00:03:06;;;;;;;1999.90;999.90;;;16.10;99.90;;;;;;5035822;28;20121;-76
2023/07/24 00:05:32;;;;;;;1999.90;999.90;;;16.10;99.90;;;;;;5037413;28;20034;-76
2023/07/24 00:07:57;;;;;;;1999.90;999.90;;;16.10;99.90;;;;;;5036972;28;20113;-76
2023/07/24 00:10:23;;;;;;;1999.90;999.90;;;16.20;99.90;;;;;;5037284;28;20112;-76
2023/07/24 00:12:48;;;;;;;1999.90;999.90;;;16.20;99.90;;;;;;5036911;28;20070;-76
2023/07/24 00:15:14;;;;;;;1999.90;999.90;;;16.20;99.90;;;;;;5035654;28;20033;-76
2023/07/24 00:17:39;;;;;;;1999.90;999.90;;;16.20;99.90;;;;;;5036901;28;20514;-76
2023/07/24 00:20:06;;;;;;;1999.90;999.90;;;16.40;99.90;;;;;;5037109;28;20420;-76
2023/07/24 00:22:32;;;;;;;1999.90;999.90;;;16.40;99.90;;;;;;5054961;28;20494;-76
2023/07/24 00:24:57;;;;;;;1999.90;999.90;;;16.50;99.90;;;;;;5056981;28;20046;-76
2023/07/24 00:27:23;;;;;;;1999.90;999.90;;;16.60;99.90;;;;;;5056635;28;20033;-76
2023/07/24 00:29:48;;;;;;;1999.90;999.90;;;16.60;99.90;;;;;;5057032;28;20037;-76
2023/07/24 00:32:14;;;;;;;1999.90;999.90;;;16.60;99.90;;;;;;5056372;28;20075;-76
2023/07/24 00:34:39;;;;;;;1999.90;999.90;;;16.50;99.90;;;;;;5053121;28;20084;-76
2023/07/24 00:37:05;;;;;;;1999.90;999.90;;;16.40;99.90;;;;;;5036599;28;20519;-77
2023/07/24 00:39:30;;;;;;;1999.90;999.90;;;16.30;99.90;;;;;;5036862;28;20038;-77
2023/07/24 00:41:56;;;;;;;1999.90;999.90;;;16.30;99.90;;;;;;5036283;28;20065;-77
2023/07/24 00:44:22;;;;;;;1999.90;999.90;;;16.30;99.90;;;;;;5036491;28;20037;-77
2023/07/24 00:46:47;;;;;;;1999.90;999.90;;;16.30;99.90;;;;;;5036598;28;20042;-74
2023/07/24 00:49:13;;;;;;;1999.90;999.90;;;16.30;99.90;;;;;;5036530;28;20036;-75
2023/07/24 00:51:39;;;;;;;1999.90;999.90;;;16.30;99.90;;;;;;5036088;28;20498;-74
2023/07/24 00:54:06;;;;;;;1999.90;999.90;;;16.30;99.90;;;;;;5036614;28;20033;-75
2023/07/24 00:56:33;;;;;;;1999.90;999.90;;;16.20;99.90;;;;;;5036017;28;20033;-75
2023/07/24 00:59:00;;;;;;;1999.90;999.90;;;16.20;99.90;;;;;;5058003;22;20529;-72
2023/07/24 01:01:26;;;;;;;1999.90;999.90;;;16.20;99.90;;;;;;5035570;28;20511;-74
2023/07/24 01:03:52;;;;;;;1999.90;999.90;;;16.20;99.90;;;;;;5036223;28;20033;-73
2023/07/24 01:06:18;;;;;;;1999.90;999.90;;;16.20;99.90;;;;;;5036246;28;20526;-73
2023/07/24 01:08:44;;;;;;;1999.90;999.90;;;16.20;99.90;;;;;;5050395;28;20029;-74
2023/07/24 01:11:19;;;;;;;1999.90;999.90;;;16.20;99.90;;;;;;5055258;28;20121;-73
2023/07/24 01:13:57;;;;;;;1999.90;999.90;;;16.20;99.90;;;;;;5054423;28;20069;-73
2023/07/24 01:16:30;;;;;;;1999.90;999.90;;;16.10;99.90;;;;;;5056142;28;20057;-73
2023/07/24 01:18:57;;;;;;;1999.90;999.90;;;16.10;99.90;;;;;;5046519;28;20112;-73
2023/07/24 01:21:33;;;;;;;1999.90;999.90;;;16.10;99.90;;;;;;5035710;28;20495;-73
2023/07/24 01:24:20;;;;;;;1999.90;999.90;;;16.10;99.90;;;;;;5035782;28;20466;-73
2023/07/24 01:26:46;;;;;;;1999.90;999.90;;;16.00;99.90;;;;;;5033320;28;20034;-73
2023/07/24 01:29:11;;;;;;;1999.90;999.90;;;16.00;99.90;;;;;;5035678;28;20041;-73
2023/07/24 01:31:37;;;;;;;1999.90;999.90;;;15.90;99.90;;;;;;5035533;28;20073;-73
2023/07/24 01:34:02;;;;;;;1999.90;999.90;;;15.90;99.90;;;;;;5034269;28;20069;-73
2023/07/24 01:36:28;;;;;;;1999.90;999.90;;;15.90;99.90;;;;;;5035544;28;20038;-73
2023/07/24 01:38:54;;;;;;;1999.90;999.90;;;15.90;99.90;;;;;;5035595;28;20056;-73
2023/07/24 01:41:20;;;;;;;1999.90;999.90;;;15.90;99.90;;;;;;5033602;28;20026;-72
2023/07/24 01:43:45;;;;;;;1999.90;999.90;;;15.80;99.90;;;;;;5035560;28;20109;-73
2023/07/24 01:46:11;;;;;;;1999.90;999.90;;;15.70;99.90;;;;;;5035488;28;20121;-73
2023/07/24 01:48:36;;;;;;;1999.90;999.90;;;15.70;99.90;;;;;;5035181;28;20037;-73
2023/07/24 01:51:02;;;;;;;1999.90;999.90;;;15.70;99.90;;;;;;5035108;28;20038;-72
2023/07/24 01:53:28;;;;;;;1999.90;999.90;;;15.70;99.90;;;;;;5035640;28;20038;-73
2023/07/24 01:55:53;;;;;;;1999.90;999.90;;;15.70;99.90;;;;;;5035359;28;20484;-73
2023/07/24 01:58:19;;;;;;;1999.90;999.90;;;15.80;99.90;;;;;;5034566;28;20081;-73
2023/07/24 02:00:44;;;;;;;1999.90;999.90;;;15.80;99.90;;;;;;5035531;28;20061;-73
2023/07/24 02:03:10;;;;;;;1999.90;999.90;;;15.90;99.90;;;;;;5034502;28;20451;-73
2023/07/24 02:05:35;;;;;;;1999.90;999.90;;;15.90;99.90;;;;;;5035062;28;20042;-73
2023/07/24 02:08:01;;;;;;;1999.90;999.90;;;15.90;99.90;;;;;;5035230;28;20423;-73
2023/07/24 02:10:26;;;;;;;1999.90;999.90;;;15.90;99.90;;;;;;5035069;28;20045;-73
2023/07/24 02:12:52;;;;;;;1999.90;999.90;;;16.00;99.90;;;;;;5034840;28;20080;-72
2023/07/24 02:15:17;;;;;;;1999.90;999.90;;;16.00;99.90;;;;;;5035041;28;20523;-73
2023/07/24 02:17:43;;;;;;;1999.90;999.90;;;16.10;99.90;;;;;;5047348;28;20081;-72
2023/07/24 02:20:09;;;;;;;1999.90;999.90;;;16.10;99.90;;;;;;5053475;28;20073;-73
2023/07/24 02:22:35;;;;;;;1999.90;999.90;;;16.20;99.90;;;;;;5054879;28;20033;-74
2023/07/24 02:25:00;;;;;;;1999.90;999.90;;;16.20;99.90;;;;;;5054907;28;20109;-73
2023/07/24 02:27:28;;;;;;;1999.90;999.90;;;16.30;99.90;;;;;;5053004;28;20175;-73
2023/07/24 02:29:54;;;;;;;1999.90;999.90;;;16.30;99.90;;;;;;5053214;28;20510;-73
2023/07/24 02:32:22;;;;;;;1999.90;999.90;;;16.30;99.90;;;;;;5053134;28;20045;-72
2023/07/24 02:34:49;;;;;;;1999.90;999.90;;;16.20;99.90;;;;;;5054626;28;20033;-73
2023/07/24 02:37:15;;;;;;;1999.90;999.90;;;16.20;99.90;;;;;;5054060;28;20538;-73
2023/07/24 02:39:40;;;;;;;1999.90;999.90;;;16.10;99.90;;;;;;5054601;28;20179;-72
2023/07/24 02:42:06;;;;;;;1999.90;999.90;;;16.10;99.90;;;;;;5054390;28;20387;-72
2023/07/24 02:44:34;;;;;;;1999.90;999.90;;;16.00;99.90;;;;;;5054437;28;20119;-72
2023/07/24 02:46:59;;;;;;;1999.90;999.90;;;16.00;99.90;;;;;;5053757;28;20586;-72
2023/07/24 02:49:25;;;;;;;1999.90;999.90;;;15.90;99.90;;;;;;5054605;28;20083;-72
2023/07/24 02:51:50;;;;;;;1999.90;999.90;;;15.90;99.90;;;;;;5054045;28;20033;-73
2023/07/24 02:54:16;;;;;;;1999.90;999.90;;;15.90;99.90;;;;;;5054265;28;20104;-72
2023/07/24 02:56:42;;;;;;;1999.90;999.90;;;15.90;99.90;;;;;;5051502;28;20043;-73
2023/07/24 02:59:07;;;;;;;1999.90;999.90;;;15.90;99.90;;;;;;5052560;28;20077;-73
2023/07/24 03:01:33;;;;;;;1999.90;999.90;;;15.90;99.90;;;;;;5053875;28;20033;-72
2023/07/24 03:03:58;;;;;;;1999.90;999.90;;;15.90;99.90;;;;;;5052824;28;20390;-73
2023/07/24 03:06:25;;;;;;;1999.90;999.90;;;15.80;99.90;;;;;;5045072;28;20034;-72
2023/07/24 03:08:50;;;;;;;1999.90;999.90;;;15.80;99.90;;;;;;5042647;28;20116;-73
2023/07/24 03:11:16;;;;;;;1999.90;999.90;;;15.80;99.90;;;;;;5054146;28;20029;-73
2023/07/24 03:13:42;;;;;;;1999.90;999.90;;;15.80;99.90;;;;;;5055611;28;20041;-73
2023/07/24 03:16:07;;;;;;;1999.90;999.90;;;15.90;99.90;;;;;;5058115;28;20033;-73
2023/07/24 03:18:33;;;;;;;1999.90;999.90;;;16.00;99.90;;;;;;5047777;28;20045;-73
2023/07/24 03:20:59;;;;;;;1999.90;999.90;;;16.00;99.90;;;;;;5035988;28;20034;-73
2023/07/24 03:23:24;;;;;;;1999.90;999.90;;;16.20;99.90;;;;;;5037802;28;20113;-73
2023/07/24 03:25:50;;;;;;;1999.90;999.90;;;16.20;99.90;;;;;;5037805;28;20105;-73
2023/07/24 03:28:15;;;;;;;1999.90;999.90;;;16.20;99.90;;;;;;5043302;28;20525;-71
2023/07/24 03:30:41;;;;;;;1999.90;999.90;;;16.20;99.90;;;;;;5057569;28;20034;-71
2023/07/24 03:33:07;;;;;;;1999.90;999.90;;;16.10;99.90;;;;;;5057581;28;20036;-71
2023/07/24 03:35:32;;;;;;;1999.90;999.90;;;16.10;99.90;;;;;;5057825;28;20509;-70
2023/07/24 03:37:58;;;;;;;1999.90;999.90;;;16.10;99.90;;;;;;5057365;28;20048;-71
2023/07/24 03:40:23;;;;;;;1999.90;999.90;;;16.10;99.90;;;;;;5057684;28;20030;-71
2023/07/24 03:42:49;;;;;;;1999.90;999.90;;;16.10;99.90;;;;;;5057467;28;20120;-71
2023/07/24 03:45:14;;;;;;;1999.90;999.90;;;16.10;99.90;;;;;;5057641;28;20033;-71
2023/07/24 03:47:40;;;;;;;1999.90;999.90;;;16.20;99.90;;;;;;5057083;28;20144;-71
2023/07/24 03:50:06;;;;;;;1999.90;999.90;;;16.20;99.90;;;;;;5055975;28;20513;-71
2023/07/24 03:52:31;;;;;;;1999.90;999.90;;;16.20;99.90;;;;;;5055708;28;20112;-70
2023/07/24 03:54:57;;;;;;;1999.90;999.90;;;16.20;99.90;;;;;;5057029;28;20037;-72
2023/07/24 03:57:22;;;;;;;1999.90;999.90;;;16.20;99.90;;;;;;5055396;28;20037;-70
2023/07/24 03:59:48;;;;;;;1999.90;999.90;;;16.20;99.90;;;;;;5057404;28;20034;-71
2023/07/24 04:02:14;;;;;;;1999.90;999.90;;;16.30;99.90;;;;;;5057094;28;20037;-72
2023/07/24 04:04:39;;;;;;;1999.90;999.90;;;16.30;99.90;;;;;;5057212;28;20378;-70
2023/07/24 04:07:05;;;;;;;1999.90;999.90;;;16.40;99.90;;;;;;5056943;28;20037;-71
2023/07/24 04:09:31;;;;;;;1999.90;999.90;;;16.40;99.90;;;;;;5057188;28;20103;-71
2023/07/24 04:11:56;;;;;;;1999.90;999.90;;;16.40;99.90;;;;;;5056891;28;20038;-73
2023/07/24 04:14:22;;;;;;;1999.90;999.90;;;16.50;99.90;;;;;;5057179;28;20056;-70
2023/07/24 04:16:47;;;;;;;1999.90;999.90;;;16.50;99.90;;;;;;5056656;28;20109;-71
2023/07/24 04:19:13;;;;;;;1999.90;999.90;;;16.50;99.90;;;;;;5044360;28;20056;-72
2023/07/24 04:21:38;;;;;;;1999.90;999.90;;;16.60;99.90;;;;;;5035531;28;20387;-70
2023/07/24 04:24:04;;;;;;;1999.90;999.90;;;16.60;99.90;;;;;;5037138;28;20040;-71
2023/07/24 04:26:30;;;;;;;1999.90;999.90;;;16.70;99.90;;;;;;5036218;28;20030;-71
2023/07/24 04:28:55;;;;;;;1999.90;999.90;;;16.70;99.90;;;;;;5036868;28;20078;-73
2023/07/24 04:31:21;;;;;;;1999.90;999.90;;;16.70;99.90;;;;;;5036738;28;20108;-71
2023/07/24 04:33:46;;;;;;;1999.90;999.90;;;16.70;99.90;;;;;;5037032;28;20029;-71
2023/07/24 04:36:12;;;;;;;1999.90;999.90;;;16.70;99.90;;;;;;5036925;28;20496;-74
2023/07/24 04:38:37;;;;;;;1999.90;999.90;;;16.60;99.90;;;;;;5036752;28;20046;-71
2023/07/24 04:41:03;;;;;;;1999.90;999.90;;;16.70;99.90;;;;;;5036276;28;20383;-71
2023/07/24 04:43:31;;;;;;;1999.90;999.90;;;16.80;99.90;;;;;;5036656;28;20448;-73
2023/07/24 04:45:57;;;;;;;1999.90;999.90;;;16.90;99.90;;;;;;5036290;28;20474;-71
2023/07/24 04:48:22;;;;;;;1999.90;999.90;;;17.00;99.90;;;;;;5036602;28;20116;-74
2023/07/24 04:50:54;;;;;;;1999.90;999.90;;;17.00;99.90;;;;;;5045530;28;20483;-73
2023/07/24 04:53:20;;;;;;;1999.90;999.90;;;17.00;99.90;;;;;;5056363;28;20160;-73
2023/07/24 04:55:46;;;;;;;1999.90;999.90;;;17.00;99.90;;;;;;5054729;28;20113;-73
2023/07/24 04:58:11;;;;;;;1999.90;999.90;;;17.10;99.90;;;;;;5055870;28;20429;-72
2023/07/24 05:00:37;;;;;;;1999.90;999.90;;;17.20;99.90;;;;;;5048059;28;20041;-73
2023/07/24 05:03:02;;;;;;;1999.90;999.90;;;17.20;99.90;;;;;;5052045;28;20525;-73
2023/07/24 05:05:28;;;;;;;1999.90;999.90;;;17.40;99.90;;;;;;5057374;28;20032;-72
2023/07/24 05:07:53;;;;;;;1999.90;999.90;;;17.40;99.90;;;;;;5055493;28;20427;-72
2023/07/24 05:10:19;;;;;;;1999.90;999.90;;;17.50;99.90;;;;;;5054155;28;20037;-72
2023/07/24 05:12:44;;;;;;;1999.90;999.90;;;17.50;99.90;;;;;;5055126;28;20086;-72
2023/07/24 05:15:10;;;;;;;1999.90;999.90;;;17.50;99.90;;;;;;5050245;28;20748;-72
2023/07/24 05:17:35;;;;;;;1999.90;999.90;;;17.60;99.90;;;;;;5035502;28;20096;-72
2023/07/24 05:20:01;;;;;;;1999.90;999.90;;;17.60;99.90;;;;;;5038234;28;20033;-71
2023/07/24 05:22:27;;;;;;;1999.90;999.90;;;17.80;99.90;;;;;;5039352;28;20440;-72
2023/07/24 05:24:52;;;;;;;1999.90;999.90;;;17.70;99.90;;;;;;5038751;28;20038;-72
2023/07/24 05:27:18;;;;;;;1999.90;999.90;;;17.60;99.90;;;;;;5053790;28;20108;-70
2023/07/24 05:29:44;;;;;;;1999.90;999.90;;;17.70;99.90;;;;;;5055818;28;20033;-70
2023/07/24 05:32:10;;;;;;;1999.90;999.90;;;17.60;99.90;;;;;;5055606;28;20034;-73
2023/07/24 05:34:35;;;;;;;1999.90;999.90;;;17.70;99.90;;;;;;5054441;28;20041;-72
2023/07/24 05:37:01;;;;;;;1999.90;999.90;;;17.80;99.90;;;;;;5053990;28;20033;-71
2023/07/24 05:39:26;;;;;;;1999.90;999.90;;;17.80;99.90;;;;;;5035609;28;20042;-69
2023/07/24 05:41:52;;;;;;;1999.90;999.90;;;17.80;99.90;;;;;;5034178;28;20065;-71
2023/07/24 05:44:17;;;;;;;1999.90;999.90;;;17.80;99.90;;;;;;5036861;28;20041;-70
2023/07/24 05:46:43;;;;;;;1999.90;999.90;;;17.90;99.90;;;;;;5036155;28;20030;-67
2023/07/24 05:49:08;;;;;;;1999.90;999.90;;;18.00;99.90;;;;;;5035800;28;20412;-70
2023/07/24 05:51:34;;;;;;;1999.90;999.90;;;18.10;99.90;;;;;;5033693;28;20026;-70
2023/07/24 05:54:00;;;;;;;1999.90;999.90;;;18.20;99.90;;;;;;5035472;28;20034;-75
2023/07/24 05:56:25;;;;;;;1999.90;999.90;;;18.20;99.90;;;;;;5035599;28;20040;-70
2023/07/24 05:58:51;;;;;;;1999.90;999.90;;;18.20;99.90;;;;;;5048381;28;20045;-70
2023/07/24 06:01:16;;;;;;;1999.90;999.90;;;18.20;99.90;;;;;;5055126;28;20479;-71
2023/07/24 06:03:42;;;;;;;1999.90;999.90;;;18.20;99.90;;;;;;5055155;28;20064;-70
2023/07/24 06:06:07;;;;;;;1999.90;999.90;;;18.20;99.90;;;;;;5054951;28;20106;-71
2023/07/24 06:08:33;;;;;;;1999.90;999.90;;;18.20;99.90;;;;;;5044466;28;20069;-70
2023/07/24 06:10:58;;;;;;;1999.90;999.90;;;18.30;99.90;;;;;;5035003;28;20065;-71
2023/07/24 06:13:24;;;;;;;1999.90;999.90;;;18.40;99.90;;;;;;5035239;28;20042;-73
2023/07/24 06:15:51;;;;;;;1999.90;999.90;;;18.40;99.90;;;;;;5035007;28;20093;-73
2023/07/24 06:18:17;;;;;;;1999.90;999.90;;;18.40;99.90;;;;;;5040180;28;20041;-73
2023/07/24 06:20:42;;;;;;;1999.90;999.90;;;18.50;99.90;;;;;;5053417;28;20516;-73
2023/07/24 06:23:08;;;;;;;1999.90;999.90;;;18.60;99.90;;;;;;5054675;28;20042;-73
2023/07/24 06:25:33;;;;;;;1999.90;999.90;;;18.70;99.90;;;;;;5049683;28;20045;-73
2023/07/24 06:27:59;;;;;;;1999.90;999.90;;;18.60;99.90;;;;;;5034997;28;20034;-72
2023/07/24 06:30:25;;;;;;;1999.90;999.90;;;18.60;99.90;;;;;;5035079;28;20122;-73
2023/07/24 06:32:51;;;;;;;1999.90;999.90;;;18.60;99.90;;;;;;5036047;28;20414;-72
2023/07/24 06:35:16;;;;;;;1999.90;999.90;;;18.70;99.90;;;;;;5034798;28;20426;-72
2023/07/24 06:37:42;;;;;;;1999.90;999.90;;;18.60;99.90;;;;;;5011916;28;20050;-72
2023/07/24 06:40:08;;;;;;;1999.90;999.90;;;18.70;99.90;;;;;;5035153;28;20050;-72
2023/07/24 06:42:34;;;;;;;1999.90;999.90;;;18.80;99.90;;;;;;5028171;28;20096;-73
2023/07/24 06:44:59;;;;;;;1999.90;999.90;;;18.80;99.90;;;;;;5034401;28;20038;-72
2023/07/24 06:47:25;;;;;;;1999.90;999.90;;;18.90;99.90;;;;;;5044058;28;20048;-72
2023/07/24 06:49:51;;;;;;;1999.90;999.90;;;19.00;99.90;;;;;;5042849;28;20044;-72
2023/07/24 06:52:16;;;;;;;1999.90;999.90;;;19.00;99.90;;;;;;5034199;28;20034;-71
2023/07/24 06:54:42;;;;;;;1999.90;999.90;;;19.20;99.90;;;;;;5047196;28;20045;-70
2023/07/24 06:59:47;;;;;;;1999.90;999.90;;;19.50;99.90;;;;;;5040461;28;20093;-66
2023/07/24 07:02:12;;;;;;;1999.90;999.90;;;19.60;99.90;;;;;;5030486;28;20117;-67
2023/07/24 07:04:38;;;;;;;1999.90;999.90;;;19.60;99.90;;;;;;5034803;28;20033;-67
2023/07/24 07:07:04;;;;;;;1999.90;999.90;;;19.80;99.90;;;;;;5052141;28;20033;-66
2023/07/24 07:09:30;;;;;;;1999.90;999.90;;;19.90;99.90;;;;;;5046375;28;20046;-67
2023/07/24 07:11:55;;;;;;;1999.90;999.90;;;20.10;99.90;;;;;;5036271;28;20442;-66
2023/07/24 07:14:20;;;;;;;1999.90;999.90;;;20.30;99.90;;;;;;5042329;28;20066;-66
2023/07/24 07:16:47;;;;;;;1999.90;999.90;;;20.50;99.90;;;;;;5037737;28;20114;-66
2023/07/24 07:19:13;;;;;;;1999.90;999.90;;;20.60;99.90;;;;;;5038408;28;20038;-67
2023/07/24 07:21:38;;;;;;;1999.90;999.90;;;20.70;99.90;;;;;;5041496;28;20040;-66
2023/07/24 07:24:04;;;;;;;1999.90;999.90;;;20.60;99.90;;;;;;5032019;28;20041;-67
2023/07/24 07:26:30;;;;;;;1999.90;999.90;;;20.50;99.90;;;;;;5028798;28;20117;-66
2023/07/24 07:28:55;;;;;;;1999.90;999.90;;;20.40;99.90;;;;;;5032486;28;20041;-67
2023/07/24 07:31:21;;;;;;;1999.90;999.90;;;20.30;99.90;;;;;;5040312;28;20038;-66
2023/07/24 07:33:48;;;;;;;1999.90;999.90;;;20.20;99.90;;;;;;5035404;28;20076;-67
2023/07/24 07:36:13;;;;;;;1999.90;999.90;;;20.20;99.90;;;;;;5014489;28;20187;-67
2023/07/24 07:38:39;;;;;;;1999.90;999.90;;;20.30;99.90;;;;;;5024392;28;20065;-67
2023/07/24 07:41:05;;;;;;;1999.90;999.90;;;20.50;99.90;;;;;;5024492;28;20031;-66
2023/07/24 07:43:31;;;;;;;1999.90;999.90;;;20.60;99.90;;;;;;5052401;28;20486;-66
2023/07/24 07:45:56;;;;;;;1999.90;999.90;;;20.60;99.90;;;;;;5045308;28;20037;-66
2023/07/24 07:48:22;;;;;;;1999.90;999.90;;;20.40;99.90;;;;;;5037789;28;20037;-67
2023/07/24 07:50:51;;;;;;;1999.90;999.90;;;20.20;99.90;;;;;;5053680;28;20126;-71
2023/07/24 07:53:17;;;;;;;1999.90;999.90;;;19.90;99.90;;;;;;5045167;28;20484;-78
2023/07/24 07:55:43;;;;;;;1999.90;999.90;;;19.90;99.90;;;;;;5053263;28;20109;-73
2023/07/24 07:58:08;;;;;;;1999.90;999.90;;;19.80;99.90;;;;;;5037560;28;20046;-73
2023/07/24 08:00:34;;;;;;;1999.90;999.90;;;19.70;99.90;;;;;;5034070;28;20038;-73
2023/07/24 08:03:00;;;;;;;1999.90;999.90;;;19.60;99.90;;;;;;5042260;28;20113;-77
2023/07/24 08:05:25;;;;;;;1999.90;999.90;;;19.60;99.90;;;;;;5036654;28;20038;-76
2023/07/24 08:07:51;;;;;;;1999.90;999.90;;;19.50;99.90;;;;;;5041402;28;20033;-74
2023/07/24 08:10:19;;;;;;;1999.90;999.90;;;19.50;99.90;;;;;;5033478;28;20033;-68
2023/07/24 08:12:45;;;;;;;1999.90;999.90;;;19.40;99.90;;;;;;5033650;28;20045;-75
2023/07/24 08:15:11;;;;;;;1999.90;999.90;;;19.30;99.90;;;;;;5034184;28;20049;-70
2023/07/24 08:17:37;;;;;;;1999.90;999.90;;;19.20;99.90;;;;;;5040807;28;20087;-70
2023/07/24 08:20:03;;;;;;;1999.90;999.90;;;19.10;99.90;;;;;;5036020;28;20092;-69
2023/07/24 08:22:28;;;;;;;1999.90;999.90;;;18.90;99.90;;;;;;5034543;28;20030;-69
2023/07/24 08:24:54;;;;;;;1999.90;999.90;;;18.90;99.90;;;;;;5036258;28;20038;-70
2023/07/24 08:27:19;;;;;;;1999.90;999.90;;;18.80;99.90;;;;;;5036911;28;20037;-70
2023/07/24 08:29:45;;;;;;;1999.90;999.90;;;18.80;99.90;;;;;;5036282;28;20061;-70
2023/07/24 08:32:10;;;;;;;1999.90;999.90;;;18.70;99.90;;;;;;5036351;28;20108;-70
2023/07/24 08:34:36;;;;;;;1999.90;999.90;;;18.70;99.90;;;;;;5036949;28;20032;-77
2023/07/24 08:37:01;;;;;;;1999.90;999.90;;;18.80;99.90;;;;;;5036596;28;20491;-70
2023/07/24 08:39:27;;;;;;;1999.90;999.90;;;18.90;99.90;;;;;;5036530;28;20038;-69
2023/07/24 08:41:52;;;;;;;1999.90;999.90;;;19.20;99.90;;;;;;5036408;28;20114;-70
2023/07/24 08:44:18;;;;;;;1999.90;999.90;;;19.40;99.90;;;;;;5036405;28;20069;-70
2023/07/24 08:46:45;;;;;;;1999.90;999.90;;;19.50;99.90;;;;;;5036502;28;20034;-70
2023/07/24 08:49:14;;;;;;;1999.90;999.90;;;19.40;99.90;;;;;;5036176;28;20038;-71
2023/07/24 08:51:44;;;;;;;1999.90;999.90;;;19.50;99.90;;;;;;5036159;28;20029;-71
2023/07/24 08:54:11;;;;;;;1999.90;999.90;;;19.40;99.90;;;;;;5036409;28;20117;-69
2023/07/24 08:56:39;;;;;;;1999.90;999.90;;;19.30;99.90;;;;;;5034917;28;20084;-69
2023/07/24 08:59:05;;;;;;;1999.90;999.90;;;19.20;99.90;;;;;;5036030;28;20052;-77
2023/07/24 09:01:31;;;;;;;1999.90;999.90;;;19.10;99.90;;;;;;5035040;28;20036;-70
2023/07/24 09:03:57;;;;;;;1999.90;999.90;;;18.90;99.90;;;;;;5036129;28;20096;-70
2023/07/24 09:06:22;;;;;;;1999.90;999.90;;;19.10;99.90;;;;;;5036452;28;20034;-70
2023/07/24 09:08:48;;;;;;;1999.90;999.90;;;19.20;99.90;;;;;;5034592;28;20061;-73
2023/07/24 09:11:14;;;;;;;1999.90;999.90;;;19.30;99.90;;;;;;5035823;28;20037;-70
2023/07/24 09:13:43;;;;;;;1999.90;999.90;;;19.40;99.90;;;;;;5034915;28;20411;-71
2023/07/24 09:16:20;;;;;;;1999.90;999.90;;;19.50;99.90;;;;;;5036110;28;20034;-73
2023/07/24 09:18:45;;;;;;;1999.90;999.90;;;19.70;99.90;;;;;;5035825;28;20101;-70
2023/07/24 09:21:12;;;;;;;1999.90;999.90;;;19.80;99.90;;;;;;5035844;28;20435;-70
2023/07/24 09:23:40;;;;;;;1999.90;999.90;;;19.90;99.90;;;;;;5034325;28;20084;-71
2023/07/24 09:26:07;;;;;;;1999.90;999.90;;;20.00;99.90;;;;;;5035746;28;20025;-70
2023/07/24 09:28:33;;;;;;;1999.90;999.90;;;20.20;99.90;;;;;;5035509;28;20034;-68
2023/07/24 09:31:03;;;;;;;1999.90;999.90;;;20.40;99.90;;;;;;5034970;28;20108;-69
2023/07/24 09:33:40;;;;;;;1999.90;999.90;;;20.50;99.90;;;;;;5035826;28;20708;-72
2023/07/24 09:36:08;;;;;;;1999.90;999.90;;;20.70;99.90;;;;;;5035776;28;20026;-69
2023/07/24 09:38:34;;;;;;;1999.90;999.90;;;20.80;99.90;;;;;;5033860;28;20038;-69
2023/07/24 09:41:02;;;;;;;1999.90;999.90;;;21.00;99.90;;;;;;5035523;28;20034;-70
2023/07/24 09:43:28;;;;;;;1999.90;999.90;;;21.50;99.90;;;;;;5035578;28;20033;-69
2023/07/24 09:45:55;;;;;;;1999.90;999.90;;;21.60;99.90;;;;;;5034148;28;20599;-70
2023/07/24 09:48:26;;;;;;;1999.90;999.90;;;21.70;99.90;;;;;;5035130;28;20061;-70
2023/07/24 09:50:57;;;;;;;1999.90;999.90;;;21.80;99.90;;;;;;5037189;28;20540;-69
2023/07/24 09:53:32;;;;;;;1999.90;999.90;;;22.40;99.90;;;;;;5031845;28;20042;-70
2023/07/24 09:56:01;;;;;;;1999.90;999.90;;;22.80;99.90;;;;;;5031718;28;20040;-69
2023/07/24 09:58:28;;;;;;;1999.90;999.90;;;23.40;99.90;;;;;;5046673;28;20503;-70
2023/07/24 10:00:53;;;;;;;1999.90;999.90;;;23.90;99.90;;;;;;5054766;28;20487;-70
2023/07/24 10:03:21;;;;;;;1999.90;999.90;;;24.20;99.90;;;;;;5055269;28;20037;-75
2023/07/24 10:05:47;;;;;;;1999.90;999.90;;;24.30;99.90;;;;;;5044157;28;20030;-77
2023/07/24 10:08:19;;;;;;;1999.90;999.90;;;24.40;99.90;;;;;;5044365;28;20065;-76
2023/07/24 10:10:45;;;;;;;1999.90;999.90;;;24.30;99.90;;;;;;5040204;28;20033;-69
2023/07/24 10:13:14;;;;;;;1999.90;999.90;;;24.00;99.90;;;;;;5040585;28;20049;-69
2023/07/24 10:15:41;;;;;;;1999.90;999.90;;;23.60;99.90;;;;;;5038265;28;20113;-70
2023/07/24 10:18:08;;;;;;;1999.90;999.90;;;23.40;99.90;;;;;;5043706;28;20497;-71
2023/07/24 10:20:35;;;;;;;1999.90;999.90;;;23.10;99.90;;;;;;5048845;28;20052;-70
2023/07/24 10:23:06;;;;;;;1999.90;999.90;;;22.90;99.90;;;;;;5035528;28;20041;-71
2023/07/24 10:25:34;;;;;;;1999.90;999.90;;;22.70;99.90;;;;;;5032170;28;20026;-74
2023/07/24 10:28:07;;;;;;;1999.90;999.90;;;22.60;99.90;;;;;;5027449;28;20088;-76
2023/07/24 10:30:37;;;;;;;1999.90;999.90;;;22.50;99.90;;;;;;5035482;28;20034;-72
2023/07/24 10:33:21;;;;;;;1999.90;999.90;;;22.40;99.90;;;;;;5023564;28;20046;-71
2023/07/24 10:35:53;;;;;;;1999.90;999.90;;;22.20;99.90;;;;;;5030359;28;20515;-76
2023/07/24 10:38:19;;;;;;;1999.90;999.90;;;22.10;99.90;;;;;;5040219;28;20041;-73
2023/07/24 10:40:46;;;;;;;1999.90;999.90;;;22.00;99.90;;;;;;5054488;28;20030;-73
2023/07/24 10:43:13;;;;;;;1999.90;999.90;;;21.80;99.90;;;;;;5052298;28;20473;-75
2023/07/24 10:45:48;;;;;;;1999.90;999.90;;;21.60;99.90;;;;;;5050190;28;20506;-74
2023/07/24 10:48:15;;;;;;;1999.90;999.90;;;21.50;99.90;;;;;;5042492;28;20046;-78
2023/07/24 10:50:43;;;;;;;1999.90;999.90;;;21.30;99.90;;;;;;5049072;28;20104;-74
2023/07/24 10:53:09;;;;;;;1999.90;999.90;;;21.10;99.90;;;;;;5054212;28;20037;-76
2023/07/24 10:55:35;;;;;;;1999.90;999.90;;;20.80;99.90;;;;;;5040016;28;20034;-76
2023/07/24 10:58:01;;;;;;;1999.90;999.90;;;20.70;99.90;;;;;;5050462;28;20056;-76
2023/07/24 11:00:27;;;;;;;1999.90;999.90;;;20.70;99.90;;;;;;5053034;28;20079;-75
2023/07/24 11:02:56;;;;;;;1999.90;999.90;;;20.50;99.90;;;;;;5053820;28;20083;-73
2023/07/24 11:05:22;;;;;;;1999.90;999.90;;;20.30;99.90;;;;;;5054205;28;20029;-73
2023/07/24 11:07:48;;;;;;;1999.90;999.90;;;20.10;99.90;;;;;;5050479;28;20069;-71
2023/07/24 11:10:24;;;;;;;1999.90;999.90;;;19.80;99.90;;;;;;5043196;28;20110;-73
2023/07/24 11:12:53;;;;;;;1999.90;999.90;;;19.70;99.90;;;;;;5035441;28;20058;-72
2023/07/24 11:15:28;;;;;;;1999.90;999.90;;;19.60;99.90;;;;;;5053113;28;20033;-72
2023/07/24 11:17:54;;;;;;;1999.90;999.90;;;19.50;99.90;;;;;;5050191;28;20052;-70
2023/07/24 11:20:20;;;;;;;1999.90;999.90;;;19.50;99.90;;;;;;5036636;28;20041;-71
2023/07/24 11:22:45;;;;;;;1999.90;999.90;;;19.40;99.90;;;;;;5033039;28;20132;-72
2023/07/24 11:25:11;;;;;;;1999.90;999.90;;;19.40;99.90;;;;;;5035562;28;20073;-72
2023/07/24 11:27:43;;;;;;;1999.90;999.90;;;19.40;99.90;;;;;;5028378;28;20037;-72
2023/07/24 11:30:10;;;;;;;1999.90;999.90;;;19.50;99.90;;;;;;5034763;28;20029;-73
2023/07/24 11:32:37;;;;;;;1999.90;999.90;;;19.60;99.90;;;;;;5028941;28;20042;-72
2023/07/24 11:35:04;;;;;;;1999.90;999.90;;;19.60;99.90;;;;;;5025741;28;20651;-72
2023/07/24 11:37:30;;;;;;;1999.90;999.90;;;19.80;99.90;;;;;;5034065;28;20871;-72
2023/07/24 11:40:09;;;;;;;1999.90;999.90;;;19.90;99.90;;;;;;5033303;28;20069;-72
2023/07/24 11:42:44;;;;;;;1999.90;999.90;;;19.90;99.90;;;;;;5031692;28;20534;-73
2023/07/24 11:45:09;;;;;;;1999.90;999.90;;;19.80;99.90;;;;;;5033442;28;20214;-73
2023/07/24 11:47:49;;;;;;;1999.90;999.90;;;19.70;99.90;;;;;;5038558;28;20439;-73
2023/07/24 11:50:16;;;;;;;1999.90;999.90;;;19.80;99.90;;;;;;5047425;28;20487;-73
2023/07/24 11:52:49;;;;;;;1999.90;999.90;;;19.80;99.90;;;;;;5051021;28;20124;-74
2023/07/24 11:55:18;;;;;;;1999.90;999.90;;;19.80;99.90;;;;;;5044948;28;20498;-73
2023/07/24 11:57:43;;;;;;;1999.90;999.90;;;20.00;99.90;;;;;;5042119;28;20200;-74